createdAt,value
2023-05-05T00:02:15.823Z,101615.67
2023-05-05T00:04:42.836Z,101614.83
2023-05-05T00:07:09.829Z,101611.96
2023-05-05T00:09:36.915Z,101608.67
2023-05-05T00:12:04.063Z,101609.27
2023-05-05T00:14:31.252Z,101602.41
2023-05-05T00:16:58.484Z,101598.84
2023-05-05T00:19:25.486Z,101597.78
2023-05-05T00:21:52.538Z,101593.73
2023-05-05T00:24:19.565Z,101590.30
2023-05-05T00:26:46.614Z,101584.40
2023-05-05T00:29:13.628Z,101580.89
2023-05-05T00:31:40.856Z,101582.39
2023-05-05T00:34:07.805Z,101582.64
2023-05-05T00:36:35.108Z,101580.30
2023-05-05T00:39:02.013Z,101577.48
2023-05-05T00:41:28.927Z,101573.72
2023-05-05T00:43:55.853Z,101572.45
2023-05-05T00:46:28.256Z,101568.35
2023-05-05T00:48:56.381Z,101570.31
2023-05-05T00:51:24.688Z,101563.95
2023-05-05T00:53:51.704Z,101565.95
2023-05-05T00:56:20.166Z,101568.14
2023-05-05T00:58:47.199Z,101570.10
2023-05-05T01:01:15.681Z,101574.67
2023-05-05T01:03:42.720Z,101571.75
2023-05-05T01:07:08.655Z,101571.95
2023-05-05T01:09:36.450Z,101563.20
2023-05-05T01:12:29.785Z,101565.11
2023-05-05T01:15:13.592Z,101566.91
2023-05-05T01:17:45.883Z,101569.41
2023-05-05T01:20:23.850Z,101567.06
2023-05-05T01:22:59.679Z,101565.36
2023-05-05T01:25:48.333Z,101562.86
2023-05-05T01:28:37.440Z,101559.30
2023-05-05T01:31:31.837Z,101562.81
2023-05-05T01:34:04.017Z,101566.16
2023-05-05T01:36:42.506Z,101564.14
2023-05-05T01:39:14.927Z,101563.91
2023-05-05T01:41:51.510Z,101563.55
2023-05-05T01:44:20.149Z,101565.98
2023-05-05T01:46:50.517Z,101568.38
2023-05-05T01:49:17.835Z,101569.50
2023-05-05T01:51:46.724Z,101568.60
2023-05-05T01:54:15.429Z,101565.26
2023-05-05T01:56:43.724Z,101560.52
2023-05-05T01:59:11.787Z,101561.59
2023-05-05T02:01:41.862Z,101565.67
2023-05-05T02:04:10.145Z,101562.17
2023-05-05T02:06:40.232Z,101558.14
2023-05-05T02:09:11.878Z,101554.52
2023-05-05T02:11:39.706Z,101553.09
2023-05-05T02:14:08.117Z,101543.20
2023-05-05T02:16:37.492Z,101538.01
2023-05-05T02:19:05.436Z,101538.00
2023-05-05T02:21:34.281Z,101541.57
2023-05-05T02:24:01.742Z,101544.60
2023-05-05T02:26:32.323Z,101542.36
2023-05-05T02:29:07.577Z,101543.20
2023-05-05T02:31:44.346Z,101532.73
2023-05-05T02:34:13.725Z,101529.51
2023-05-05T02:36:43.170Z,101526.01
2023-05-05T02:39:20.947Z,101527.64
2023-05-05T02:41:50.221Z,101528.34
2023-05-05T02:44:25.085Z,101528.17
2023-05-05T02:46:54.390Z,101524.63
2023-05-05T02:49:21.921Z,101521.42
2023-05-05T02:51:49.692Z,101524.77
2023-05-05T02:54:23.838Z,101519.66
2023-05-05T02:56:51.610Z,101520.88
2023-05-05T02:59:38.492Z,101519.40
2023-05-05T03:02:13.391Z,101518.77
2023-05-05T03:04:48.785Z,101523.23
2023-05-05T03:07:25.260Z,101525.20
2023-05-05T03:10:15.190Z,101521.73
2023-05-05T03:12:56.206Z,101518.65
2023-05-05T03:15:36.249Z,101516.68
2023-05-05T03:18:06.556Z,101515.83
2023-05-05T03:20:35.110Z,101514.02
2023-05-05T03:23:05.597Z,101510.30
2023-05-05T03:25:46.977Z,101511.21
2023-05-05T03:28:20.574Z,101513.59
2023-05-05T03:30:47.712Z,101511.84
2023-05-05T03:33:16.342Z,101510.40
2023-05-05T03:35:43.321Z,101510.27
2023-05-05T03:38:11.699Z,101514.75
2023-05-05T03:40:44.634Z,101515.09
2023-05-05T03:43:13.951Z,101510.63
2023-05-05T03:45:41.106Z,101511.79
2023-05-05T03:48:09.830Z,101510.30
2023-05-05T03:50:38.329Z,101506.69
2023-05-05T03:53:05.354Z,101513.33
2023-05-05T03:55:32.725Z,101518.27
2023-05-05T03:57:59.603Z,101524.05
2023-05-05T04:00:26.493Z,101528.79
2023-05-05T04:02:53.845Z,101525.59
2023-05-05T04:05:23.104Z,101528.63
2023-05-05T04:07:50.425Z,101532.45
2023-05-05T04:10:17.575Z,101530.16
2023-05-05T04:12:44.527Z,101531.54
2023-05-05T04:15:11.980Z,101534.89
2023-05-05T04:17:39.965Z,101535.98
2023-05-05T04:20:07.795Z,101541.54
2023-05-05T04:22:35.058Z,101542.39
2023-05-05T04:25:02.429Z,101542.72
2023-05-05T04:27:30.488Z,101542.13
2023-05-05T04:29:58.228Z,101534.27
2023-05-05T04:32:25.421Z,101532.40
2023-05-05T04:34:52.577Z,101537.91
2023-05-05T04:37:19.740Z,101541.27
2023-05-05T04:39:47.083Z,101544.18
2023-05-05T04:42:14.103Z,101545.66
2023-05-05T04:44:41.651Z,101546.21
2023-05-05T04:47:08.875Z,101547.38
2023-05-05T04:49:36.286Z,101548.51
2023-05-05T04:52:03.434Z,101555.52
2023-05-05T04:54:30.481Z,101551.89
2023-05-05T04:56:57.811Z,101548.79
2023-05-05T04:59:24.774Z,101551.39
2023-05-05T05:01:51.642Z,101553.09
2023-05-05T05:04:18.894Z,101553.30
2023-05-05T05:06:46.206Z,101550.61
2023-05-05T05:09:13.420Z,101548.85
2023-05-05T05:11:40.438Z,101542.61
2023-05-05T05:14:07.354Z,101538.67
2023-05-05T05:16:34.500Z,101537.14
2023-05-05T05:19:02.014Z,101539.53
2023-05-05T05:21:30.184Z,101536.82
2023-05-05T05:23:57.283Z,101543.67
2023-05-05T05:26:24.508Z,101545.92
2023-05-05T05:28:51.775Z,101552.92
2023-05-05T05:31:19.054Z,101554.79
2023-05-05T05:33:46.503Z,101561.21
2023-05-05T05:36:15.701Z,101558.13
2023-05-05T05:38:43.522Z,101561.04
2023-05-05T05:41:11.500Z,101566.87
2023-05-05T05:43:39.208Z,101573.81
2023-05-05T05:46:08.812Z,101575.27
2023-05-05T05:48:36.383Z,101582.71
2023-05-05T05:51:03.698Z,101584.11
2023-05-05T05:53:30.838Z,101587.92
2023-05-05T05:55:57.881Z,101585.55
2023-05-05T05:58:24.768Z,101585.40
2023-05-05T06:00:51.859Z,101583.59
2023-05-05T06:03:19.117Z,101584.77
2023-05-05T06:05:50.649Z,101590.54
2023-05-05T06:08:18.132Z,101596.41
2023-05-05T06:10:48.422Z,101594.36
2023-05-05T06:13:17.244Z,101599.45
2023-05-05T06:15:46.376Z,101597.90
2023-05-05T06:18:13.577Z,101603.96
2023-05-05T06:20:41.009Z,101603.64
2023-05-05T06:23:08.037Z,101608.48
2023-05-05T06:25:36.723Z,101612.77
2023-05-05T06:28:05.873Z,101616.28
2023-05-05T06:30:33.440Z,101616.28
2023-05-05T06:33:00.367Z,101619.07
2023-05-05T06:35:27.394Z,101623.73
2023-05-05T06:37:54.323Z,101622.42
2023-05-05T06:40:21.592Z,101623.10
2023-05-05T06:42:48.426Z,101623.16
2023-05-05T06:45:19.005Z,101621.78
2023-05-05T06:47:46.117Z,101628.69
2023-05-05T06:50:13.257Z,101632.79
2023-05-05T06:52:40.215Z,101634.07
2023-05-05T06:55:07.636Z,101639.01
2023-05-05T06:57:34.607Z,101638.48
2023-05-05T07:00:03.866Z,101645.48
2023-05-05T07:02:31.123Z,101651.44
2023-05-05T07:04:58.010Z,101654.36
2023-05-05T07:07:24.874Z,101657.80
2023-05-05T07:09:51.841Z,101660.79
2023-05-05T07:12:18.714Z,101668.17
2023-05-05T07:14:46.864Z,101673.27
2023-05-05T07:17:13.776Z,101672.90
2023-05-05T07:19:40.670Z,101670.20
2023-05-05T07:22:07.584Z,101673.27
2023-05-05T07:24:34.512Z,101679.64
2023-05-05T07:27:01.804Z,101682.09
2023-05-05T07:29:28.825Z,101684.26
2023-05-05T07:31:55.734Z,101686.50
2023-05-05T07:34:22.696Z,101690.66
2023-05-05T07:36:49.617Z,101694.02
2023-05-05T07:39:16.536Z,101695.88
2023-05-05T07:41:43.533Z,101694.27
2023-05-05T07:44:10.477Z,101696.20
2023-05-05T07:46:37.507Z,101696.30
2023-05-05T07:49:04.646Z,101698.96
2023-05-05T07:51:34.391Z,101699.71
2023-05-05T07:54:01.961Z,101704.55
2023-05-05T07:56:28.962Z,101706.98
2023-05-05T07:58:56.028Z,101705.45
2023-05-05T08:01:23.454Z,101711.45
2023-05-05T08:03:50.462Z,101714.21
2023-05-05T08:06:22.054Z,101717.18
2023-05-05T08:08:49.499Z,101715.75
2023-05-05T08:11:17.205Z,101717.52
2023-05-05T08:13:44.377Z,101717.45
2023-05-05T08:16:12.250Z,101721.34
2023-05-05T08:18:39.566Z,101726.33
2023-05-05T08:21:08.215Z,101728.67
2023-05-05T08:23:35.958Z,101732.02
2023-05-05T08:26:06.294Z,101729.45
2023-05-05T08:28:34.781Z,101728.27
2023-05-05T08:31:01.943Z,101729.56
2023-05-05T08:33:28.982Z,101730.36
2023-05-05T08:35:56.048Z,101727.34
2023-05-05T08:38:23.249Z,101728.73
2023-05-05T08:40:51.409Z,101727.50
2023-05-05T08:43:22.839Z,101727.18
2023-05-05T08:45:51.510Z,101728.40
2023-05-05T08:48:21.140Z,101733.02
2023-05-05T08:50:51.985Z,101735.52
2023-05-05T08:53:30.806Z,101736.91
2023-05-05T08:56:00.983Z,101737.91
2023-05-05T08:58:29.117Z,101741.83
2023-05-05T09:00:57.109Z,101745.38
2023-05-05T09:03:27.272Z,101742.02
2023-05-05T09:05:54.611Z,101743.03
2023-05-05T09:08:22.328Z,101745.38
2023-05-05T09:10:51.853Z,101738.96
2023-05-05T09:13:30.712Z,101738.98
2023-05-05T09:15:58.390Z,101741.05
2023-05-05T09:18:26.082Z,101741.14
2023-05-05T09:20:53.230Z,101742.73
2023-05-05T09:23:21.077Z,101744.54
2023-05-05T09:26:02.819Z,101740.75
2023-05-05T09:28:29.975Z,101740.45
2023-05-05T09:31:11.814Z,101738.39
2023-05-05T09:33:39.395Z,101741.24
2023-05-05T09:36:06.691Z,101737.80
2023-05-05T09:38:36.233Z,101735.15
2023-05-05T09:41:03.343Z,101734.94
2023-05-05T09:43:49.039Z,101732.28
2023-05-05T09:46:16.020Z,101734.66
2023-05-05T09:48:43.049Z,101735.19
2023-05-05T09:51:10.129Z,101733.91
2023-05-05T09:53:42.025Z,101733.35
2023-05-05T09:56:09.234Z,101734.77
2023-05-05T09:58:36.247Z,101734.29
2023-05-05T10:01:03.225Z,101731.64
2023-05-05T10:03:30.292Z,101732.84
2023-05-05T10:05:59.768Z,101734.77
2023-05-05T10:08:29.372Z,101737.98
2023-05-05T10:11:06.652Z,101739.65
2023-05-05T10:13:40.250Z,101736.04
2023-05-05T10:16:09.759Z,101735.35
2023-05-05T10:18:40.440Z,101732.05
2023-05-05T10:21:08.700Z,101730.73
2023-05-05T10:23:44.522Z,101731.02
2023-05-05T10:26:14.164Z,101726.59
2023-05-05T10:29:01.522Z,101726.91
2023-05-05T10:31:49.158Z,101726.13
2023-05-05T10:34:35.991Z,101726.81
2023-05-05T10:37:04.933Z,101728.83
2023-05-05T10:39:32.157Z,101731.33
2023-05-05T10:42:04.402Z,101728.46
2023-05-05T10:44:34.178Z,101727.98
2023-05-05T10:47:02.236Z,101728.87
2023-05-05T10:49:41.248Z,101727.54
2023-05-05T10:52:38.264Z,101727.31
2023-05-05T10:55:05.999Z,101723.88
2023-05-05T10:57:39.386Z,101724.52
2023-05-05T11:00:08.772Z,101721.96
2023-05-05T11:02:36.897Z,101722.65
2023-05-05T11:05:18.289Z,101725.78
2023-05-05T11:07:46.801Z,101728.49
2023-05-05T11:10:15.730Z,101728.95
2023-05-05T11:13:02.694Z,101729.89
2023-05-05T11:15:30.001Z,101730.56
2023-05-05T11:17:58.483Z,101726.43
2023-05-05T11:20:40.532Z,101725.11
2023-05-05T11:23:07.651Z,101730.32
2023-05-05T11:25:38.157Z,101735.00
2023-05-05T11:28:09.103Z,101736.33
2023-05-05T11:30:57.445Z,101739.50
2023-05-05T11:33:39.223Z,101737.22
2023-05-05T11:36:13.646Z,101737.34
2023-05-05T11:38:55.951Z,101735.52
2023-05-05T11:41:35.102Z,101731.98
2023-05-05T11:44:20.126Z,101733.73
2023-05-05T11:46:53.007Z,101731.31
2023-05-05T11:49:30.012Z,101733.97
2023-05-05T11:52:00.517Z,101730.56
2023-05-05T11:54:28.028Z,101727.55
2023-05-05T11:57:05.534Z,101726.58
2023-05-05T11:59:33.997Z,101728.71
2023-05-05T12:02:01.341Z,101725.30
2023-05-05T12:04:28.378Z,101724.52
2023-05-05T12:06:55.594Z,101723.14
2023-05-05T12:09:23.959Z,101719.63
2023-05-05T12:11:58.852Z,101714.91
2023-05-05T12:14:26.021Z,101718.00
2023-05-05T12:16:58.682Z,101709.92
2023-05-05T12:19:32.976Z,101703.76
2023-05-05T12:22:01.401Z,101703.11
2023-05-05T12:24:28.552Z,101695.47
2023-05-05T12:26:55.493Z,101695.27
2023-05-05T12:29:29.926Z,101694.59
2023-05-05T12:31:58.346Z,101690.44
2023-05-05T12:34:25.467Z,101687.61
2023-05-05T12:36:52.563Z,101680.23
2023-05-05T12:39:19.496Z,101682.67
2023-05-05T12:41:47.572Z,101676.77
2023-05-05T12:44:14.501Z,101675.75
2023-05-05T12:46:49.105Z,101670.00
2023-05-05T12:49:16.944Z,101669.41
2023-05-05T12:51:54.643Z,101665.96
2023-05-05T12:54:24.109Z,101660.49
2023-05-05T12:56:51.438Z,101654.98
2023-05-05T12:59:21.332Z,101651.25
2023-05-05T13:01:52.797Z,101650.52
2023-05-05T13:04:21.939Z,101649.13
2023-05-05T13:06:50.408Z,101650.92
2023-05-05T13:09:25.248Z,101647.79
2023-05-05T13:11:53.419Z,101644.19
2023-05-05T13:14:21.448Z,101641.98
2023-05-05T13:16:48.476Z,101644.08
2023-05-05T13:19:15.675Z,101639.98
2023-05-05T13:21:42.625Z,101640.09
2023-05-05T13:24:23.434Z,101635.30
2023-05-05T13:26:56.168Z,101634.95
2023-05-05T13:29:25.558Z,101628.84
2023-05-05T13:31:55.594Z,101625.78
2023-05-05T13:34:22.647Z,101621.77
2023-05-05T13:36:49.641Z,101616.49
2023-05-05T13:39:16.747Z,101612.29
2023-05-05T13:41:44.937Z,101610.00
2023-05-05T13:44:13.803Z,101606.48
2023-05-05T13:46:44.424Z,101601.02
2023-05-05T13:49:11.922Z,101602.02
2023-05-05T13:51:39.298Z,101603.29
2023-05-05T13:54:07.359Z,101603.23
2023-05-05T13:56:34.886Z,101599.17
2023-05-05T13:59:02.589Z,101599.50
2023-05-05T14:01:30.318Z,101598.65
2023-05-05T14:03:57.883Z,101594.67
2023-05-05T14:06:26.110Z,101593.52
2023-05-05T14:08:53.107Z,101590.66
2023-05-05T14:11:20.888Z,101590.77
2023-05-05T14:13:48.411Z,101592.80
2023-05-05T14:16:15.659Z,101590.51
2023-05-05T14:18:42.809Z,101593.12
2023-05-05T14:21:09.893Z,101592.95
2023-05-05T14:23:37.201Z,101592.27
2023-05-05T14:26:04.285Z,101592.15
2023-05-05T14:28:31.245Z,101596.03
2023-05-05T14:30:58.251Z,101596.08
2023-05-05T14:33:25.204Z,101594.21
2023-05-05T14:35:52.513Z,101586.41
2023-05-05T14:38:19.686Z,101585.94
2023-05-05T14:40:46.649Z,101588.33
2023-05-05T14:43:13.613Z,101586.21
2023-05-05T14:45:40.521Z,101586.95
2023-05-05T14:48:07.890Z,101586.10
2023-05-05T14:50:34.746Z,101584.82
2023-05-05T14:53:01.688Z,101588.21
2023-05-05T14:55:29.026Z,101583.42
2023-05-05T14:57:55.977Z,101579.38
2023-05-05T15:00:23.019Z,101580.55
2023-05-05T15:02:50.345Z,101574.96
2023-05-05T15:05:17.493Z,101577.60
2023-05-05T15:07:44.422Z,101576.73
2023-05-05T15:10:11.874Z,101577.46
2023-05-05T15:12:39.314Z,101583.02
2023-05-05T15:15:08.728Z,101576.98
2023-05-05T15:17:37.743Z,101576.73
2023-05-05T15:20:08.287Z,101578.77
2023-05-05T15:22:35.672Z,101579.16
2023-05-05T15:25:02.573Z,101578.90
2023-05-05T15:27:30.774Z,101578.39
2023-05-05T15:29:57.937Z,101574.30
2023-05-05T15:32:24.930Z,101571.17
2023-05-05T15:34:51.923Z,101572.17
2023-05-05T15:37:18.876Z,101569.46
2023-05-05T15:39:45.820Z,101569.69
2023-05-05T15:42:13.184Z,101567.13
2023-05-05T15:44:40.418Z,101562.83
2023-05-05T15:47:07.716Z,101561.23
2023-05-05T15:49:34.790Z,101560.52
2023-05-05T15:52:01.693Z,101561.55
2023-05-05T15:54:28.582Z,101558.26
2023-05-05T15:56:55.515Z,101558.70
2023-05-05T15:59:22.478Z,101558.44
2023-05-05T16:01:49.439Z,101560.21
2023-05-05T16:04:16.667Z,101560.57
2023-05-05T16:06:43.792Z,101555.71
2023-05-05T16:09:10.747Z,101560.06
2023-05-05T16:11:37.705Z,101562.63
2023-05-05T16:14:05.897Z,101561.48
2023-05-05T16:16:33.005Z,101563.06
2023-05-05T16:19:00.318Z,101562.55
2023-05-05T16:21:27.780Z,101563.52
2023-05-05T16:23:55.951Z,101566.04
2023-05-05T16:26:23.291Z,101565.45
2023-05-05T16:28:50.308Z,101568.27
2023-05-05T16:31:17.309Z,101566.36
2023-05-05T16:33:44.536Z,101568.15
2023-05-05T16:36:14.761Z,101570.48
2023-05-05T16:38:41.909Z,101568.66
2023-05-05T16:41:09.034Z,101570.36
2023-05-05T16:43:39.268Z,101567.81
2023-05-05T16:46:06.756Z,101566.42
2023-05-05T16:48:34.012Z,101568.02
2023-05-05T16:51:01.041Z,101570.98
2023-05-05T16:53:28.003Z,101566.41
2023-05-05T16:55:54.977Z,101571.56
2023-05-05T16:58:24.919Z,101573.43
2023-05-05T17:00:52.523Z,101573.43
2023-05-05T17:03:20.417Z,101575.03
2023-05-05T17:05:52.105Z,101575.48
2023-05-05T17:08:19.796Z,101573.89
2023-05-05T17:10:46.763Z,101575.87
2023-05-05T17:13:14.832Z,101576.08
2023-05-05T17:15:42.103Z,101577.73
2023-05-05T17:18:09.390Z,101574.86
2023-05-05T17:20:36.578Z,101576.66
2023-05-05T17:23:03.745Z,101580.45
2023-05-05T17:25:31.304Z,101580.58
2023-05-05T17:27:58.152Z,101580.61
2023-05-05T17:30:25.136Z,101579.08
2023-05-05T17:32:52.186Z,101584.55
2023-05-05T17:35:19.296Z,101587.27
2023-05-05T17:37:46.520Z,101587.58
2023-05-05T17:40:13.579Z,101588.46
2023-05-05T17:42:40.937Z,101589.63
2023-05-05T17:45:09.189Z,101593.92
2023-05-05T17:47:36.348Z,101593.77
2023-05-05T17:50:03.773Z,101595.61
2023-05-05T17:52:30.793Z,101594.81
2023-05-05T17:54:57.880Z,101598.90
2023-05-05T17:57:24.840Z,101600.62
2023-05-05T17:59:53.856Z,101597.13
2023-05-05T18:02:21.353Z,101599.46
2023-05-05T18:04:48.264Z,101598.58
2023-05-05T18:07:15.232Z,101599.42
2023-05-05T18:09:42.656Z,101600.82
2023-05-05T18:12:09.822Z,101601.61
2023-05-05T18:14:37.018Z,101604.08
2023-05-05T18:17:04.943Z,101606.16
2023-05-05T18:19:32.082Z,101608.98
2023-05-05T18:21:59.328Z,101606.08
2023-05-05T18:24:30.253Z,101609.64
2023-05-05T18:26:58.522Z,101609.61
2023-05-05T18:29:25.683Z,101610.95
2023-05-05T18:31:54.915Z,101613.23
2023-05-05T18:34:22.631Z,101613.06
2023-05-05T18:37:01.372Z,101611.67
2023-05-05T18:39:36.171Z,101608.89
2023-05-05T18:42:12.628Z,101611.55
2023-05-05T18:44:39.596Z,101612.95
2023-05-05T18:47:07.002Z,101615.92
2023-05-05T18:49:34.040Z,101615.45
2023-05-05T18:52:01.176Z,101614.80
2023-05-05T18:54:28.199Z,101615.98
2023-05-05T18:56:55.258Z,101615.50
2023-05-05T18:59:22.496Z,101620.56
2023-05-05T19:01:49.339Z,101624.86
2023-05-05T19:04:30.194Z,101626.49
2023-05-05T19:06:59.185Z,101625.67
2023-05-05T19:09:26.349Z,101632.90
2023-05-05T19:11:53.530Z,101635.02
2023-05-05T19:14:20.476Z,101635.16
2023-05-05T19:16:47.561Z,101637.98
2023-05-05T19:19:14.570Z,101641.91
2023-05-05T19:21:41.490Z,101642.55
2023-05-05T19:24:09.851Z,101643.41
2023-05-05T19:26:37.789Z,101646.44
2023-05-05T19:29:06.240Z,101649.21
2023-05-05T19:31:33.332Z,101649.42
2023-05-05T19:34:02.774Z,101649.33
2023-05-05T19:36:33.920Z,101647.30
2023-05-05T19:39:01.975Z,101652.30
2023-05-05T19:41:32.079Z,101649.15
2023-05-05T19:43:59.000Z,101647.41
2023-05-05T19:46:26.754Z,101647.47
2023-05-05T19:48:53.902Z,101647.66
2023-05-05T19:51:21.102Z,101649.84
2023-05-05T19:53:51.514Z,101651.87
2023-05-05T19:56:28.063Z,101656.66
2023-05-05T19:58:59.420Z,101657.67
2023-05-05T20:01:33.635Z,101661.91
2023-05-05T20:04:04.164Z,101663.14
2023-05-05T20:06:36.630Z,101668.88
2023-05-05T20:09:07.219Z,101672.02
2023-05-05T20:11:38.823Z,101676.52
2023-05-05T20:14:08.057Z,101676.16
2023-05-05T20:16:44.015Z,101678.85
2023-05-05T20:19:15.883Z,101678.37
2023-05-05T20:21:43.369Z,101677.65
2023-05-05T20:24:10.908Z,101674.83
2023-05-05T20:26:37.937Z,101670.73
2023-05-05T20:29:04.989Z,101669.08
2023-05-05T20:31:32.013Z,101666.88
2023-05-05T20:33:59.387Z,101667.58
2023-05-05T20:36:29.241Z,101664.38
2023-05-05T20:38:56.258Z,101658.86
2023-05-05T20:41:30.083Z,101659.48
2023-05-05T20:43:57.112Z,101655.16
2023-05-05T20:46:24.306Z,101657.77
2023-05-05T20:48:51.811Z,101656.10
2023-05-05T20:51:18.825Z,101658.11
2023-05-05T20:53:47.426Z,101653.98
2023-05-05T20:56:14.297Z,101656.80
2023-05-05T20:58:41.755Z,101655.72
2023-05-05T21:01:08.720Z,101655.09
2023-05-05T21:03:36.535Z,101651.86
2023-05-05T21:06:03.573Z,101654.63
2023-05-05T21:08:30.835Z,101651.13
2023-05-05T21:10:57.747Z,101647.10
2023-05-05T21:13:24.713Z,101646.48
2023-05-05T21:15:51.664Z,101643.76
2023-05-05T21:18:18.588Z,101644.42
2023-05-05T21:20:47.428Z,101643.55
2023-05-05T21:23:14.461Z,101642.91
2023-05-05T21:25:41.510Z,101644.11
2023-05-05T21:28:08.661Z,101642.67
2023-05-05T21:30:35.670Z,101640.70
2023-05-05T21:33:02.544Z,101642.50
2023-05-05T21:35:29.488Z,101639.05
2023-05-05T21:37:56.763Z,101639.11
2023-05-05T21:40:25.027Z,101637.61
2023-05-05T21:42:52.064Z,101639.16
2023-05-05T21:45:19.016Z,101633.95
2023-05-05T21:47:46.177Z,101634.00
2023-05-05T21:50:13.219Z,101638.07
2023-05-05T21:52:40.269Z,101640.67
2023-05-05T21:55:08.127Z,101641.56
2023-05-05T21:57:35.184Z,101643.63
2023-05-05T22:00:02.720Z,101642.20
2023-05-05T22:02:43.693Z,101638.91
2023-05-05T22:05:10.767Z,101636.45
2023-05-05T22:07:37.648Z,101634.56
2023-05-05T22:10:04.961Z,101633.49
2023-05-05T22:12:31.880Z,101630.96
2023-05-05T22:14:58.854Z,101627.95
2023-05-05T22:17:25.770Z,101628.22
2023-05-05T22:19:53.034Z,101626.98
2023-05-05T22:22:19.872Z,101621.16
2023-05-05T22:24:46.940Z,101621.92
2023-05-05T22:27:14.465Z,101621.23
2023-05-05T22:29:41.873Z,101620.38
2023-05-05T22:32:10.175Z,101622.62
2023-05-05T22:34:37.880Z,101619.16
2023-05-05T22:37:06.205Z,101615.00
2023-05-05T22:39:33.410Z,101614.52
2023-05-05T22:42:01.019Z,101615.73
2023-05-05T22:44:27.907Z,101613.92
2023-05-05T22:46:54.827Z,101610.04
2023-05-05T22:49:22.860Z,101613.13
2023-05-05T22:51:51.325Z,101608.25
2023-05-05T22:54:18.263Z,101604.69
2023-05-05T22:56:45.821Z,101598.31
2023-05-05T22:59:12.653Z,101595.92
2023-05-05T23:01:39.689Z,101591.27
2023-05-05T23:04:06.720Z,101586.90
2023-05-05T23:06:33.710Z,101584.20
2023-05-05T23:09:00.646Z,101580.29
2023-05-05T23:11:27.610Z,101574.61
2023-05-05T23:13:54.513Z,101570.52
2023-05-05T23:16:21.859Z,101573.42
2023-05-05T23:18:49.626Z,101570.09
2023-05-05T23:21:16.867Z,101568.77
2023-05-05T23:23:44.085Z,101562.65
2023-05-05T23:26:13.506Z,101560.90
2023-05-05T23:28:40.454Z,101555.33
2023-05-05T23:31:07.430Z,101548.68
2023-05-05T23:33:34.401Z,101545.81
2023-05-05T23:36:01.323Z,101543.00
2023-05-05T23:38:28.393Z,101536.52
2023-05-05T23:40:55.608Z,101534.61
2023-05-05T23:43:22.660Z,101533.33
2023-05-05T23:45:51.935Z,101531.05
2023-05-05T23:48:18.951Z,101527.91
2023-05-05T23:50:45.840Z,101528.86
2023-05-05T23:53:12.672Z,101526.00
2023-05-05T23:55:39.912Z,101526.52
2023-05-05T23:58:06.913Z,101522.43
